Time;durP1;ratioP1;P1;durP2;ratioP2;P2;SDS_P1;SDS_P2;PMS_P1;PMS_P2;Temp;Humidity;BMP_temperature;BMP_pressure;BME280_temperature;BME280_humidity;BME280_pressure;Samples;Min_cycle;Max_cycle;Signal;HPM_P1;HPM_P2
2022/01/17 00:04:53;;;;;;;36.60;17.68;;;;;;;4.77;100.00;99593.03;714465;1174;114716;-78
2022/01/17 00:19:56;;;;;;;34.48;16.13;;;;;;;4.90;100.00;99560.94;715177;1203;23136;-79
2022/01/17 00:34:59;;;;;;;53.48;22.60;;;;;;;5.14;100.00;99524.43;714768;1200;23305;-80
2022/01/17 00:50:01;;;;;;;38.23;16.48;;;;;;;5.23;100.00;99481.29;713852;1203;23180;-78
2022/01/17 01:05:04;;;;;;;40.60;15.50;;;;;;;5.32;100.00;99472.77;714237;1200;23223;-80
2022/01/17 01:21:09;;;;;;;32.03;14.30;;;;;;;5.48;100.00;99436.77;715210;1204;26083;-81
2022/01/17 01:35:34;;;;;;;44.90;17.17;;;;;;;5.51;100.00;99404.47;713903;1200;23141;-81
2022/01/17 01:50:36;;;;;;;37.13;16.85;;;;;;;5.65;100.00;99359.13;714199;1200;23164;-80
2022/01/17 02:05:38;;;;;;;24.10;12.30;;;;;;;5.58;100.00;99342.35;713767;1205;23134;-80
2022/01/17 02:20:44;;;;;;;21.48;10.03;;;;;;;5.67;100.00;99294.75;713885;1199;23140;-80
2022/01/17 02:35:49;;;;;;;21.55;10.43;;;;;;;5.67;100.00;99281.73;713974;1200;26085;-79
2022/01/17 02:50:52;;;;;;;20.10;9.30;;;;;;;5.73;100.00;99203.16;713983;1200;26748;-80
2022/01/17 03:05:56;;;;;;;18.13;8.97;;;;;;;5.79;100.00;99174.02;714046;1200;23273;-80
2022/01/17 03:21:00;;;;;;;14.40;6.23;;;;;;;5.87;100.00;99120.47;714095;1205;23147;-81
2022/01/17 03:36:03;;;;;;;11.35;4.58;;;;;;;5.87;100.00;99081.42;714242;1203;23134;-80
2022/01/17 03:51:05;;;;;;;10.68;3.10;;;;;;;6.02;98.26;99053.23;714141;1200;25984;-80
2022/01/17 04:06:08;;;;;;;6.47;3.73;;;;;;;5.71;98.43;98993.47;714052;1200;26672;-81
2022/01/17 04:21:11;;;;;;;6.63;2.80;;;;;;;5.76;98.82;99018.11;714001;1200;23266;-80
2022/01/17 04:36:13;;;;;;;13.55;2.33;;;;;;;5.71;99.43;98931.83;714038;1203;23240;-80
2022/01/17 04:51:15;;;;;;;9.33;2.53;;;;;;;5.66;100.00;98944.42;713977;1203;23281;-80
2022/01/17 05:06:18;;;;;;;14.85;2.60;;;;;;;5.36;100.00;98899.38;714152;1206;24815;-79
2022/01/17 05:21:21;;;;;;;7.35;2.08;;;;;;;5.24;100.00;98856.23;714174;1200;26290;-80
2022/01/17 05:36:23;;;;;;;9.78;3.73;;;;;;;5.23;100.00;98800.82;714177;1204;26153;-80
2022/01/17 05:51:25;;;;;;;9.67;3.00;;;;;;;5.26;100.00;98730.33;714445;1200;26023;-80
2022/01/17 06:06:27;;;;;;;7.23;2.35;;;;;;;5.34;100.00;98662.03;716790;1166;23118;-79
2022/01/17 06:21:30;;;;;;;10.85;3.78;;;;;;;5.05;100.00;98655.11;714139;1204;23127;-78
2022/01/17 06:36:32;;;;;;;11.30;4.57;;;;;;;4.78;100.00;98628.08;713920;1200;23144;-77
2022/01/17 06:51:35;;;;;;;17.58;6.58;;;;;;;4.76;100.00;98583.22;713897;1204;23135;-77
2022/01/17 07:06:38;;;;;;;15.98;7.50;;;;;;;4.77;100.00;98890.64;714221;1206;23127;-77
2022/01/17 07:21:40;;;;;;;9.30;4.00;;;;;;;3.06;100.00;98888.17;714665;1203;24600;-76
2022/01/17 07:36:59;;;;;;;16.60;7.93;;;;;;;2.77;100.00;98861.95;714776;1200;23259;-76
2022/01/17 07:52:05;;;;;;;451.07;132.07;;;;;;;2.65;100.00;98866.31;714748;1203;23137;-79
2022/01/17 08:07:07;;;;;;;367.63;120.40;;;;;;;2.84;100.00;98909.76;715239;1205;23186;-75
2022/01/17 08:22:10;;;;;;;106.10;45.20;;;;;;;2.93;100.00;98864.16;714619;1202;23160;-78
2022/01/17 08:37:12;;;;;;;45.80;17.10;;;;;;;3.06;100.00;98967.66;714531;1205;23135;-75
2022/01/17 09:23:14;;;;;;;22.27;8.57;;;;;;;3.37;100.00;99028.30;714731;1174;54780;-76
2022/01/17 09:38:18;;;;;;;34.98;14.03;;;;;;;3.33;100.00;99095.12;714586;1174;114346;-79
2022/01/17 09:53:20;;;;;;;22.80;12.10;;;;;;;4.53;98.98;99117.75;714367;1174;115509;-78
2022/01/17 10:08:24;;;;;;;65.50;20.50;;;;;;;5.37;94.52;99150.70;713366;1168;386668;-79
2022/01/17 10:38:42;;;;;;;475.00;163.03;;;;;;;6.47;85.11;99238.50;714022;1174;114656;-75
2022/01/17 10:53:50;;;;;;;122.05;47.65;;;;;;;6.70;81.63;99271.32;714674;1174;114038;-75
2022/01/17 11:08:54;;;;;;;16.77;7.97;;;;;;;5.92;79.33;99292.70;715379;1174;114620;-75
2022/01/17 11:24:01;;;;;;;22.35;8.83;;;;;;;5.24;78.31;99342.49;715090;1174;114259;-76
2022/01/17 11:39:05;;;;;;;19.73;7.47;;;;;;;4.71;78.81;99383.05;714857;1174;114825;-73
2022/01/17 11:54:16;;;;;;;23.18;7.78;;;;;;;4.53;77.97;99408.66;714452;1176;115000;-76
2022/01/17 12:09:24;;;;;;;9.60;3.95;;;;;;;4.52;73.76;99461.55;714136;1174;115204;-75
2022/01/17 12:24:30;;;;;;;17.95;4.65;;;;;;;4.67;70.66;99537.50;714457;1174;113941;-75
2022/01/17 12:39:32;;;;;;;21.45;9.45;;;;;;;4.49;66.97;99547.52;714711;1174;114625;-71
2022/01/17 12:54:35;;;;;;;10.40;5.17;;;;;;;4.50;67.29;99601.95;713976;1174;114160;-73
2022/01/17 13:09:40;;;;;;;38.50;12.63;;;;;;;4.64;66.28;99624.30;714141;1174;115351;-74
2022/01/17 13:24:43;;;;;;;21.27;7.27;;;;;;;4.82;65.52;99658.49;714140;1174;115131;-73
2022/01/17 13:39:46;;;;;;;10.60;4.00;;;;;;;6.81;64.43;99706.59;714152;1174;114198;-73
2022/01/17 13:54:54;;;;;;;6.03;2.83;;;;;;;5.36;63.47;99775.91;713853;1174;115511;-73
2022/01/17 14:10:21;;;;;;;12.23;4.33;;;;;;;4.64;64.07;99803.58;714017;1174;114599;-75
2022/01/17 14:25:24;;;;;;;11.60;5.00;;;;;;;4.39;65.16;99907.55;714037;1174;115137;-74
2022/01/17 14:40:32;;;;;;;11.73;4.60;;;;;;;4.27;65.12;99901.42;714066;1174;115264;-75
2022/01/17 15:10:49;;;;;;;136.75;50.95;;;;;;;3.99;66.20;100038.25;714156;1174;115276;-76
2022/01/17 15:25:51;;;;;;;60.55;27.83;;;;;;;3.81;65.74;100082.63;714557;1177;115464;-77
2022/01/17 15:40:54;;;;;;;24.97;9.70;;;;;;;3.63;65.88;100149.46;714720;1174;115040;-77
2022/01/17 15:55:56;;;;;;;20.63;8.58;;;;;;;3.65;66.13;100196.06;714678;1174;115406;-76
2022/01/17 16:10:58;;;;;;;23.93;10.35;;;;;;;3.54;66.93;100232.18;714643;1174;114326;-75
2022/01/17 16:26:01;;;;;;;38.25;14.65;;;;;;;3.60;67.25;100276.78;714176;1175;115570;-75
2022/01/17 16:41:04;;;;;;;25.70;8.75;;;;;;;3.58;68.07;100345.25;714345;1177;114031;-77
2022/01/17 16:56:06;;;;;;;26.55;9.95;;;;;;;3.69;66.16;100384.36;714408;1175;113858;-74
2022/01/17 17:11:09;;;;;;;24.78;11.15;;;;;;;3.78;67.58;100424.52;714424;1175;115031;-74
2022/01/17 17:26:14;;;;;;;26.80;12.25;;;;;;;3.75;67.99;100468.80;714189;1174;114591;-74
2022/01/17 17:41:16;;;;;;;35.20;11.85;;;;;;;3.79;67.90;100484.13;714095;1174;115219;-75
2022/01/17 17:56:19;;;;;;;20.10;7.53;;;;;;;3.81;68.04;100520.36;713987;1174;115413;-73
2022/01/17 18:11:24;;;;;;;30.55;11.38;;;;;;;3.83;68.92;100537.52;714340;1174;115257;-73
2022/01/17 18:26:28;;;;;;;22.53;9.63;;;;;;;3.74;69.68;100563.98;714342;1174;115423;-71
2022/01/17 18:41:31;;;;;;;48.93;18.95;;;;;;;3.80;68.95;100617.30;714642;1177;113810;-74
2022/01/17 18:56:34;;;;;;;76.15;28.03;;;;;;;3.91;70.27;100668.66;714310;1174;115249;-71
2022/01/17 19:11:37;;;;;;;92.03;34.80;;;;;;;3.84;69.84;100707.09;714546;1174;115257;-73
2022/01/17 19:26:42;;;;;;;43.33;17.45;;;;;;;3.85;69.69;100715.70;714107;1174;115043;-75
2022/01/17 19:41:44;;;;;;;26.20;9.63;;;;;;;3.87;69.73;100744.99;714218;1174;115542;-72
2022/01/17 19:56:48;;;;;;;10.20;5.07;;;;;;;3.88;69.79;100768.30;714253;1174;114957;-71
2022/01/17 20:11:50;;;;;;;19.93;7.93;;;;;;;3.98;69.54;100792.01;714087;1174;115125;-73
2022/01/17 20:26:53;;;;;;;17.77;6.43;;;;;;;3.95;68.84;100797.38;714187;1175;114363;-72
2022/01/17 20:41:55;;;;;;;12.58;5.30;;;;;;;3.91;68.32;100848.60;714024;1174;115088;-72
2022/01/17 20:56:58;;;;;;;15.53;5.23;;;;;;;3.93;69.52;100890.05;714451;1174;113874;-71
2022/01/17 21:12:03;;;;;;;9.60;4.08;;;;;;;3.89;70.28;100898.92;714572;1174;114315;-73
2022/01/17 21:27:06;;;;;;;113.45;33.25;;;;;;;3.89;71.52;100914.49;714528;1174;114912;-72
2022/01/17 21:42:12;;;;;;;168.73;53.93;;;;;;;3.78;71.57;100923.65;714893;1174;31546;-80
2022/01/17 21:57:14;;;;;;;182.53;54.90;;;;;;;3.40;71.25;100969.62;714436;1174;115448;-80
2022/01/17 22:12:17;;;;;;;68.20;28.73;;;;;;;2.96;71.87;101007.05;714437;1174;114195;-81
2022/01/17 23:36:59;;;;;;;13.83;5.80;;;;;;;1.35;73.81;101030.87;715250;1166;67585;-79
2022/01/17 23:52:01;;;;;;;16.85;5.65;;;;;;;1.14;74.35;101049.70;715383;1167;118612;-79
